DW8835 La Escala ES current weather conditions

sailwx.info

Wind from 140 at 3 knots gusting 11

Air temperature 24.4° C
Dewpoint 16.7° C

Last reported at 2015-Jul-28 12:41 UTC.
Time now 2015-Jul-28 13:24 UTC

Location: N 42°07' E 003°08'.
View on Google Maps.

See reports from other nearby stations

  
Tides and Currents Weather Stations Pressure Air Temp Water Temp Dewpoint Dewpoint Depression Visibility Wind Speed Wind Dir Waves Ship Positions
date/time (UTC)wind fromknots sea level pressurealtimeterstation pressurevisibilityair tempwater tempwave heightnotes
2015-Jul-28 12:41 140 3 gusting 11 24.4
2015-Jul-28 12:31 143 2 gusting 8 24.4
2015-Jul-28 12:21 069 4 gusting 11 24.4
2015-Jul-28 12:11 077 6 gusting 11 24.4
2015-Jul-28 12:01 117 5 gusting 6 25.0
2015-Jul-28 11:51 090 4 gusting 9 25.0
2015-Jul-28 11:41 139 6 gusting 12 25.0
2015-Jul-28 11:31 135 5 gusting 9 25.0
2015-Jul-28 11:21 082 2 gusting 7 26.1
2015-Jul-28 11:11 071 3 gusting 6 26.1
2015-Jul-28 11:01 121 3 gusting 8 25.6
2015-Jul-28 10:51 105 3 gusting 7 25.0
2015-Jul-28 10:41 124 1 gusting 7 25.0
2015-Jul-28 10:31 098 2 gusting 6 25.0
2015-Jul-28 10:21 119 2 gusting 6 25.0
2015-Jul-28 10:11 098 1 gusting 5 25.0
2015-Jul-28 10:01 132 2 gusting 6 25.0
2015-Jul-28 09:51 101 2 gusting 6 24.4
2015-Jul-28 09:41 112 2 gusting 6 24.4
2015-Jul-28 09:31 103 3 gusting 6 24.4
2015-Jul-28 09:21 110 2 gusting 7 23.9
2015-Jul-28 09:11 127 0 gusting 6 23.9
2015-Jul-28 09:01 099 1 gusting 6 23.9
2015-Jul-28 08:51 109 1 gusting 6 23.9
2015-Jul-28 08:41 119 3 gusting 6 23.9
2015-Jul-28 08:31 077 2 gusting 6 23.9
2015-Jul-28 08:21 098 1 gusting 4 23.9
2015-Jul-28 08:11 040 0 gusting 3 23.9
2015-Jul-28 08:01 017 1 gusting 3 24.4
2015-Jul-28 07:51 306 0 gusting 3 23.9
2015-Jul-28 07:41 304 0 gusting 4 23.9
2015-Jul-28 07:31 302 1 gusting 4 23.3
2015-Jul-28 07:21 005 1 gusting 3 23.3
2015-Jul-28 07:11 360 0 gusting 3 23.3
2015-Jul-28 07:01 360 3 gusting 5 23.3
2015-Jul-28 06:51 343 0 gusting 2 23.3
2015-Jul-28 06:41 343 0 gusting 4 22.8
2015-Jul-28 06:31 344 1 gusting 5 22.8
2015-Jul-28 06:21 325 2 gusting 6 22.2
2015-Jul-28 06:11 317 1 gusting 3 22.2
2015-Jul-28 06:01 315 21.7
2015-Jul-28 05:51 315 1 gusting 4 21.7
2015-Jul-28 05:41 012 0 gusting 2 21.7
2015-Jul-28 05:31 012 0 gusting 2 21.7
2015-Jul-28 05:21 012 1 gusting 3 21.7
2015-Jul-28 05:11 323 21.7
2015-Jul-28 05:01 323 21.7
2015-Jul-28 04:51 323 21.7
2015-Jul-28 04:41 323 21.7
2015-Jul-28 04:31 323 21.7
2015-Jul-28 04:21 323 21.7
2015-Jul-28 04:11 323 21.7
2015-Jul-28 04:01 323 1 gusting 3 22.2
2015-Jul-28 03:51 323 2 gusting 4 22.2
2015-Jul-28 03:41 341 2 gusting 4 22.2
2015-Jul-28 03:31 339 2 gusting 4 22.2
2015-Jul-28 03:21 339 3 gusting 4 22.2
2015-Jul-28 03:12 333 3 gusting 6 22.2
2015-Jul-28 03:02 323 3 gusting 6 22.8
2015-Jul-28 02:52 327 4 gusting 6 22.8
2015-Jul-28 02:42 317 4 gusting 6 22.8
2015-Jul-28 02:32 333 4 gusting 6 22.8
2015-Jul-28 02:22 312 4 gusting 6 22.8
2015-Jul-28 02:12 338 3 gusting 6 22.8
2015-Jul-28 02:02 344 4 gusting 6 23.3
2015-Jul-28 01:52 309 4 gusting 6 23.3
2015-Jul-28 01:42 327 4 gusting 6 23.3
2015-Jul-28 01:32 322 3 gusting 5 23.3
2015-Jul-28 01:22 314 4 gusting 6 23.3
2015-Jul-28 01:12 338 2 gusting 5 23.3
2015-Jul-28 01:02 005 2 gusting 4 23.3
2015-Jul-28 00:52 338 2 gusting 5 23.9
2015-Jul-28 00:42 331 4 gusting 7 23.9
2015-Jul-28 00:32 315 3 gusting 6 23.9
2015-Jul-28 00:22 322 5 gusting 7 23.9
2015-Jul-28 00:12 312 3 gusting 6 23.9
2015-Jul-28 00:02 343 3 gusting 5 23.9
2015-Jul-27 23:52 338 5 gusting 8 23.9
2015-Jul-27 23:42 333 3 gusting 5 23.9
2015-Jul-27 23:32 335 1 gusting 4 23.9
2015-Jul-27 23:22 306 2 gusting 5 23.9
2015-Jul-27 23:12 313 3 gusting 6 23.9
2015-Jul-27 23:02 321 5 gusting 6 24.4
2015-Jul-27 22:52 333 5 gusting 9 24.4
2015-Jul-27 22:42 319 5 gusting 10 24.4
2015-Jul-27 22:32 346 5 gusting 8 24.4
2015-Jul-27 22:22 010 5 gusting 8 24.4
2015-Jul-27 22:12 348 3 gusting 7 24.4
2015-Jul-27 22:02 331 3 gusting 9 24.4
2015-Jul-27 21:52 005 4 gusting 8 25.0
2015-Jul-27 21:42 342 5 gusting 9 25.0
2015-Jul-27 21:32 338 5 gusting 7 25.0
2015-Jul-27 21:22 325 6 gusting 13 25.0
2015-Jul-27 21:12 326 6 gusting 13 25.0
2015-Jul-27 21:02 032 8 gusting 15 25.0
2015-Jul-27 20:52 340 6 gusting 13 25.0
2015-Jul-27 20:42 342 9 gusting 14 25.0
2015-Jul-27 20:32 317 6 gusting 13 25.0
2015-Jul-27 20:22 328 6 gusting 13 25.0
2015-Jul-27 20:12 329 7 gusting 15 25.6
2015-Jul-27 20:02 015 7 gusting 12 25.6
2015-Jul-27 19:52 317 6 gusting 11 25.6
2015-Jul-27 19:42 318 5 gusting 10 25.6
2015-Jul-27 19:32 334 6 gusting 13 25.6
2015-Jul-27 19:22 337 2 gusting 6 25.6
2015-Jul-27 19:12 090 0 gusting 2 25.6
2015-Jul-27 19:02 331 0 gusting 2 25.6
2015-Jul-27 18:52 332 1 gusting 2 25.6
2015-Jul-27 18:42 332 1 gusting 2 25.6
2015-Jul-27 18:32 332 25.6
2015-Jul-27 18:22 332 0 gusting 2 25.6
2015-Jul-27 18:12 332 25.6
2015-Jul-27 18:02 343 0 gusting 1 25.6
2015-Jul-27 17:52 343 1 gusting 2 25.6
2015-Jul-27 17:42 343 0 gusting 3 26.1
2015-Jul-27 17:32 343 0 gusting 2 26.1
2015-Jul-27 17:22 343 0 gusting 2 26.1
2015-Jul-27 17:12 343 26.1
2015-Jul-27 17:02 343 0 gusting 3 26.1
2015-Jul-27 16:52 342 2 gusting 4 26.1
2015-Jul-27 16:42 332 3 gusting 5 26.1
2015-Jul-27 16:32 330 4 gusting 5 26.1
2015-Jul-27 16:22 360 1 gusting 4 26.1
2015-Jul-27 16:12 355 3 gusting 6 26.1
2015-Jul-27 16:02 333 3 gusting 6 26.1
2015-Jul-27 15:52 317 4 gusting 6 26.1
2015-Jul-27 15:42 005 3 gusting 7 26.1
2015-Jul-27 15:32 331 3 gusting 5 26.1
2015-Jul-27 15:22 350 3 gusting 5 26.1
2015-Jul-27 15:12 355 2 gusting 6 26.1
2015-Jul-27 15:02 022 4 gusting 6 26.1
2015-Jul-27 14:52 347 2 gusting 6 26.1
2015-Jul-27 14:32 340 4 gusting 6 26.1
2015-Jul-27 14:22 351 3 gusting 6 26.1
2015-Jul-27 14:12 348 2 gusting 5 26.1
2015-Jul-27 14:02 051 2 gusting 6 26.7
2015-Jul-27 13:52 009 4 gusting 6 26.7
2015-Jul-27 13:42 005 4 gusting 8 26.1
2015-Jul-27 13:32 333 5 gusting 9 26.1
2015-Jul-27 13:22 336 4 gusting 9 26.1
2015-Jul-27 13:12 331 3 gusting 8 26.1
2015-Jul-27 13:02 360 5 gusting 8 26.7
2015-Jul-27 12:52 329 3 gusting 6 26.7
2015-Jul-27 12:42 342 3 gusting 6 26.7
2015-Jul-27 12:32 360 3 gusting 6 26.7
2015-Jul-27 12:22 322 5 gusting 7 26.1
2015-Jul-27 12:12 329 6 gusting 8 26.7
2015-Jul-27 12:02 338 6 gusting 10 26.1
2015-Jul-27 11:52 321 6 gusting 8 26.7
2015-Jul-27 11:42 345 5 gusting 10 26.1
2015-Jul-27 11:32 296 5 gusting 10 26.1
2015-Jul-27 11:22 336 5 gusting 8 26.1
2015-Jul-27 11:12 355 6 gusting 10 26.7
2015-Jul-27 11:02 355 6 gusting 9 26.7
2015-Jul-27 10:52 355 6 gusting 9 26.7
2015-Jul-27 10:42 011 5 gusting 10 26.7
2015-Jul-27 10:32 317 6 gusting 8 26.7
2015-Jul-27 10:22 331 4 gusting 7 26.7
2015-Jul-27 10:12 317 6 gusting 9 26.7
2015-Jul-27 10:02 349 6 gusting 9 26.7
2015-Jul-27 09:52 342 4 gusting 9 26.1
2015-Jul-27 09:42 337 4 gusting 10 26.1
2015-Jul-27 09:32 321 6 gusting 10 26.1
2015-Jul-27 09:22 306 6 gusting 9 25.6
2015-Jul-27 09:12 340 8 gusting 11 25.6
2015-Jul-27 09:02 342 6 gusting 9 25.6
2015-Jul-27 08:52 306 6 gusting 9 25.6
2015-Jul-27 08:42 333 2 gusting 6 25.6
2015-Jul-27 08:32 360 2 gusting 6 25.0
2015-Jul-27 08:22 282 3 gusting 6 25.0
2015-Jul-27 08:12 303 1 gusting 5 25.0
2015-Jul-27 08:02 278 25.0
2015-Jul-27 07:52 276 24.4
2015-Jul-27 07:42 276 23.9
2015-Jul-27 07:32 276 0 gusting 2 23.9
2015-Jul-27 07:22 276 23.9
2015-Jul-27 07:12 276 0 gusting 2 23.9
2015-Jul-27 07:02 276 23.9
2015-Jul-27 06:52 276 0 gusting 2 23.3
2015-Jul-27 06:42 277 1 gusting 3 23.3
2015-Jul-27 06:32 213 1 gusting 2 22.8
2015-Jul-27 06:22 209 21.7
2015-Jul-27 06:12 209 21.7
2015-Jul-27 06:02 210 0 gusting 2 21.1
2015-Jul-27 05:52 210 0 gusting 1 21.1
2015-Jul-27 05:42 210 0 gusting 2 21.1
2015-Jul-27 05:32 215 2 gusting 3 21.1
2015-Jul-27 05:22 217 0 gusting 2 21.1
2015-Jul-27 05:12 216 0 gusting 2 21.1
2015-Jul-27 05:02 216 0 gusting 3 21.1
2015-Jul-27 04:52 223 1 gusting 3 21.1
2015-Jul-27 04:42 224 1 gusting 3 21.1
2015-Jul-27 04:32 225 1 gusting 3 21.1
2015-Jul-27 04:22 224 1 gusting 2 21.1
2015-Jul-27 04:12 225 0 gusting 2 21.7
2015-Jul-27 04:02 225 0 gusting 4 21.7
2015-Jul-27 03:52 218 2 gusting 4 21.7
2015-Jul-27 03:42 220 1 gusting 5 21.7
2015-Jul-27 03:32 200 3 gusting 5 21.7
2015-Jul-27 03:22 215 2 gusting 5 21.7
2015-Jul-27 03:12 228 2 gusting 4 21.7
2015-Jul-27 03:02 224 3 gusting 6 22.2
2015-Jul-27 02:52 189 2 gusting 5 22.2
2015-Jul-27 02:42 206 2 gusting 5 22.2
2015-Jul-27 02:32 163 2 gusting 4 22.8
2015-Jul-27 02:22 360 22.8
2015-Jul-27 02:12 360 22.8
2015-Jul-27 02:02 360 22.8
2015-Jul-27 01:52 360 22.8
2015-Jul-27 01:42 360 22.8
2015-Jul-27 01:32 360 22.8
2015-Jul-27 01:22 360 22.8
2015-Jul-27 01:12 360 22.8
2015-Jul-27 01:02 360 22.8
2015-Jul-27 00:52 350 1 gusting 2 23.3
2015-Jul-27 00:42 350 0 gusting 3 23.3
2015-Jul-27 00:32 350 1 gusting 2 23.3
2015-Jul-27 00:22 350 2 gusting 4 23.3
2015-Jul-27 00:12 348 1 gusting 3 23.9
2015-Jul-27 00:02 348 1 gusting 3 24.4
2015-Jul-26 23:52 348 1 gusting 3 24.4
2015-Jul-26 23:42 348 1 gusting 4 25.0
2015-Jul-26 23:32 248 1 gusting 2 25.0
2015-Jul-26 23:22 247 25.0
2015-Jul-26 23:12 247 25.0
2015-Jul-26 23:01 247 25.6
2015-Jul-26 22:52 246 25.6
2015-Jul-26 22:42 246 25.6
2015-Jul-26 22:32 246 25.6
2015-Jul-26 22:22 246 25.6
2015-Jul-26 22:12 246 1 gusting 3 26.1
2015-Jul-26 22:02 218 0 gusting 2 26.1
2015-Jul-26 21:52 217 26.1
2015-Jul-26 21:42 217 0 gusting 1 26.1
2015-Jul-26 21:32 217 26.7
2015-Jul-26 21:22 217 26.7
2015-Jul-26 21:12 217 27.2
2015-Jul-26 21:02 217 1 gusting 2 27.2
2015-Jul-26 20:52 217 27.8
2015-Jul-26 20:42 217 0 gusting 1 27.8
2015-Jul-26 20:32 217 0 gusting 1 28.3
2015-Jul-26 20:22 215 28.3
2015-Jul-26 20:12 215 28.9
2015-Jul-26 20:02 215 28.9
2015-Jul-26 19:51 215 29.4
2015-Jul-26 19:42 215 29.4
2015-Jul-26 19:32 215 30.0
2015-Jul-26 19:22 215 30.0
2015-Jul-26 19:11 215 30.0
2015-Jul-26 19:02 216 30.6
2015-Jul-26 18:52 215 30.6
2015-Jul-26 18:42 215 0 gusting 3 30.6
2015-Jul-26 18:32 216 1 gusting 4 30.6
2015-Jul-26 18:22 176 2 gusting 5 30.6
2015-Jul-26 18:12 174 2 gusting 7 30.6
2015-Jul-26 18:01 179 3 gusting 6 30.6
2015-Jul-26 17:52 207 2 gusting 6 30.0
2015-Jul-26 17:42 174 4 gusting 8 30.6
2015-Jul-26 17:32 165 6 gusting 8 30.0
2015-Jul-26 17:21 203 4 gusting 10 30.6
2015-Jul-26 17:11 151 5 gusting 9 30.6
2015-Jul-26 17:02 140 6 gusting 10 30.6
2015-Jul-26 16:52 173 6 gusting 9 31.1
2015-Jul-26 16:41 200 3 gusting 6 31.1
2015-Jul-26 16:32 171 2 gusting 5 31.1
2015-Jul-26 16:22 261 3 gusting 4 31.1
2015-Jul-26 16:11 212 5 gusting 6 31.1
2015-Jul-26 16:02 164 0 gusting 6 31.1
2015-Jul-26 15:51 170 4 gusting 10 31.1
2015-Jul-26 15:42 183 6 gusting 9 31.1
2015-Jul-26 15:32 176 6 gusting 11 31.1
2015-Jul-26 15:21 158 8 gusting 13 31.1
2015-Jul-26 15:12 156 3 gusting 9 31.1
2015-Jul-26 15:02 136 7 gusting 11 31.1
2015-Jul-26 14:52 154 4 gusting 12 31.1
2015-Jul-26 14:41 170 5 gusting 10 31.1
2015-Jul-26 14:32 177 5 gusting 8 30.6
2015-Jul-26 14:22 136 5 gusting 10 30.6
2015-Jul-26 14:12 294 2 gusting 6 31.1
2015-Jul-26 14:01 144 4 gusting 9 31.7
2015-Jul-26 13:51 167 5 gusting 10 31.1
2015-Jul-26 13:41 148 6 gusting 12 31.7
2015-Jul-26 13:32 142 4 gusting 10 31.1
2015-Jul-26 13:22 153 3 gusting 8 30.6
2015-Jul-26 13:12 227 2 gusting 7 29.4
2015-Jul-26 13:02 113 2 gusting 7 29.4